Time;durP1;ratioP1;P1;durP2;ratioP2;P2;SDS_P1;SDS_P2;PMS_P1;PMS_P2;Temp;Humidity;BMP_temperature;BMP_pressure;BME280_temperature;BME280_humidity;BME280_pressure;Samples;Min_cycle;Max_cycle;Signal;HPM_P1;HPM_P2
2022/10/25 00:01:41;;;;;;;5.70;2.70;;;12.90;42.20;;;;;;4965745;28;20705;-64
2022/10/25 00:04:08;;;;;;;5.87;2.50;;;12.90;42.30;;;;;;4957739;28;20492;-64
2022/10/25 00:06:35;;;;;;;5.53;2.43;;;12.90;42.20;;;;;;4966070;28;20540;-64
2022/10/25 00:09:02;;;;;;;6.10;2.33;;;12.90;42.20;;;;;;4966814;28;20483;-64
2022/10/25 00:11:32;;;;;;;6.23;2.70;;;12.90;42.10;;;;;;4958973;28;20497;-64
2022/10/25 00:14:01;;;;;;;10.10;2.50;;;12.80;42.00;;;;;;4958397;28;20730;-65
2022/10/25 00:16:30;;;;;;;5.93;1.87;;;12.90;42.00;;;;;;4962845;28;20521;-64
2022/10/25 00:18:57;;;;;;;5.63;2.77;;;12.80;41.90;;;;;;4967875;28;20476;-64
2022/10/25 00:21:24;;;;;;;5.47;2.30;;;12.80;41.80;;;;;;4963542;28;20482;-64
2022/10/25 00:23:52;;;;;;;5.60;2.60;;;12.80;42.40;;;;;;4968889;28;20461;-64
2022/10/25 00:26:19;;;;;;;10.50;3.10;;;12.80;41.70;;;;;;4965508;28;20753;-64
2022/10/25 00:28:48;;;;;;;6.17;2.80;;;12.70;41.60;;;;;;4965267;28;20476;-65
2022/10/25 00:31:16;;;;;;;6.50;2.83;;;12.70;41.60;;;;;;4964683;28;20489;-64
2022/10/25 00:33:44;;;;;;;7.10;2.90;;;12.70;41.60;;;;;;4965004;28;20462;-64
2022/10/25 00:36:13;;;;;;;5.80;3.00;;;12.70;42.30;;;;;;4961690;28;20489;-64
2022/10/25 00:38:40;;;;;;;6.50;3.00;;;12.60;41.60;;;;;;4964152;28;20745;-64
2022/10/25 00:41:08;;;;;;;15.03;3.43;;;12.60;41.50;;;;;;4962710;28;20767;-65
2022/10/25 00:43:36;;;;;;;6.10;2.77;;;12.60;41.70;;;;;;4966698;28;20682;-65
2022/10/25 00:46:08;;;;;;;8.23;3.60;;;12.60;41.70;;;;;;4961267;28;20481;-64
2022/10/25 00:48:35;;;;;;;5.70;2.77;;;12.50;41.80;;;;;;4964912;28;20466;-64
2022/10/25 00:51:03;;;;;;;7.47;3.53;;;12.50;41.80;;;;;;4963778;28;20462;-64
2022/10/25 00:53:35;;;;;;;6.67;3.20;;;12.40;41.80;;;;;;4965274;28;20471;-64
2022/10/25 00:56:08;;;;;;;5.93;3.17;;;12.40;42.50;;;;;;4958822;28;20485;-65
2022/10/25 00:58:36;;;;;;;7.20;3.53;;;12.30;41.80;;;;;;4965257;28;20496;-64
2022/10/25 01:01:07;;;;;;;7.30;3.70;;;12.30;41.80;;;;;;4959536;28;20479;-66
2022/10/25 01:03:36;;;;;;;5.90;2.77;;;12.30;42.10;;;;;;4966188;28;20462;-64
2022/10/25 01:06:05;;;;;;;10.03;3.27;;;12.30;42.00;;;;;;4963095;28;20882;-65
2022/10/25 01:08:33;;;;;;;7.27;2.93;;;12.30;42.00;;;;;;4965735;28;20474;-65
2022/10/25 01:11:00;;;;;;;6.70;3.23;;;12.20;41.80;;;;;;4965178;28;20684;-64
2022/10/25 01:13:27;;;;;;;6.50;3.10;;;12.20;41.80;;;;;;4963613;28;20463;-64
2022/10/25 01:16:07;;;;;;;7.00;3.13;;;12.10;41.80;;;;;;4963223;28;20490;-64
2022/10/25 01:18:43;;;;;;;6.27;2.83;;;12.10;41.80;;;;;;4964199;28;20458;-63
2022/10/25 01:21:44;;;;;;;7.20;3.13;;;12.10;42.00;;;;;;4958743;28;20465;-63
2022/10/25 01:24:31;;;;;;;6.83;2.83;;;12.10;42.20;;;;;;4967165;28;20466;-65
2022/10/25 01:27:24;;;;;;;8.33;3.30;;;12.00;42.10;;;;;;4955402;28;20491;-63
2022/10/25 01:30:08;;;;;;;7.63;2.40;;;12.00;42.70;;;;;;4952746;28;20486;-64
2022/10/25 01:32:45;;;;;;;6.87;2.90;;;12.00;42.60;;;;;;4965246;28;20482;-64
2022/10/25 01:35:20;;;;;;;6.23;2.67;;;12.00;42.40;;;;;;4958547;28;20489;-63
2022/10/25 01:38:12;;;;;;;7.63;2.50;;;12.00;42.60;;;;;;4960703;28;20466;-63
2022/10/25 01:40:48;;;;;;;6.53;2.40;;;11.90;42.80;;;;;;4965114;28;20474;-63
2022/10/25 01:43:26;;;;;;;5.50;2.33;;;11.90;42.70;;;;;;4967376;28;20465;-64
2022/10/25 01:46:00;;;;;;;8.60;2.40;;;11.90;42.80;;;;;;4962412;28;20565;-64
2022/10/25 01:48:33;;;;;;;4.57;1.93;;;11.90;42.90;;;;;;4961709;28;20475;-64
2022/10/25 01:51:08;;;;;;;9.13;2.70;;;11.90;42.90;;;;;;4958889;28;20469;-63
2022/10/25 01:53:44;;;;;;;8.10;1.97;;;11.90;43.00;;;;;;4964128;28;20465;-64
2022/10/25 01:56:14;;;;;;;5.60;2.17;;;11.90;43.40;;;;;;4959383;28;20490;-65
2022/10/25 01:58:50;;;;;;;5.33;2.30;;;11.90;43.40;;;;;;4962069;28;20858;-64
2022/10/25 02:01:25;;;;;;;5.33;2.13;;;11.90;43.50;;;;;;4961513;28;20483;-65
2022/10/25 02:04:00;;;;;;;6.50;2.10;;;12.00;43.70;;;;;;4959007;28;20469;-64
2022/10/25 02:06:33;;;;;;;6.40;2.37;;;12.00;43.60;;;;;;4963709;28;20907;-65
2022/10/25 02:09:05;;;;;;;5.07;2.10;;;12.00;43.60;;;;;;4965254;28;20857;-64
2022/10/25 02:11:33;;;;;;;9.03;2.10;;;12.00;43.80;;;;;;4959648;28;20798;-64
2022/10/25 02:14:11;;;;;;;8.10;2.57;;;12.00;44.40;;;;;;4960475;28;20843;-64
2022/10/25 02:16:44;;;;;;;9.33;2.20;;;12.00;44.10;;;;;;4960852;28;20493;-64
2022/10/25 02:19:15;;;;;;;10.63;2.47;;;12.00;44.10;;;;;;4962887;28;20860;-65
2022/10/25 02:21:43;;;;;;;7.70;2.00;;;12.00;44.00;;;;;;4967738;28;20630;-64
2022/10/25 02:24:15;;;;;;;7.80;2.77;;;12.00;44.00;;;;;;4962046;28;20482;-64
2022/10/25 02:26:44;;;;;;;5.60;1.70;;;12.10;44.20;;;;;;4964305;28;20490;-66
2022/10/25 02:29:13;;;;;;;6.63;1.90;;;12.00;44.20;;;;;;4964117;28;20478;-64
2022/10/25 02:31:40;;;;;;;6.00;2.93;;;12.10;44.10;;;;;;4963589;28;21031;-64
2022/10/25 02:34:07;;;;;;;4.63;2.00;;;12.00;44.10;;;;;;4961745;28;20946;-64
2022/10/25 02:36:35;;;;;;;6.27;2.47;;;12.10;44.20;;;;;;4959995;28;20477;-64
2022/10/25 02:39:04;;;;;;;8.17;2.80;;;12.10;44.20;;;;;;4969914;28;20466;-64
2022/10/25 02:41:30;;;;;;;5.53;2.03;;;12.10;44.20;;;;;;4955359;28;20471;-64
2022/10/25 02:43:57;;;;;;;6.00;2.40;;;12.10;44.00;;;;;;4968625;28;20465;-65
2022/10/25 02:46:24;;;;;;;6.17;2.00;;;12.10;43.80;;;;;;4960133;28;20569;-64
2022/10/25 02:48:51;;;;;;;8.17;2.20;;;12.20;43.30;;;;;;4960276;28;20486;-66
2022/10/25 02:51:19;;;;;;;4.93;1.77;;;12.10;43.30;;;;;;4958753;28;20462;-64
2022/10/25 02:53:47;;;;;;;6.40;2.33;;;12.10;43.20;;;;;;4962989;28;20469;-64
2022/10/25 02:56:16;;;;;;;5.80;2.37;;;12.10;43.30;;;;;;4959037;28;20486;-64
2022/10/25 02:58:44;;;;;;;7.77;1.90;;;12.10;43.30;;;;;;4961416;28;20549;-64
2022/10/25 03:01:11;;;;;;;6.27;2.50;;;12.10;43.20;;;;;;4963051;28;20481;-64
2022/10/25 03:03:38;;;;;;;9.20;2.53;;;12.10;43.10;;;;;;4963972;28;20471;-63
2022/10/25 03:06:06;;;;;;;6.40;2.20;;;12.10;43.30;;;;;;4960922;28;20481;-64
2022/10/25 03:08:33;;;;;;;7.50;2.20;;;12.10;43.30;;;;;;4961311;28;20465;-63
2022/10/25 03:11:02;;;;;;;5.13;2.47;;;12.10;43.20;;;;;;4960913;28;21033;-64
2022/10/25 03:13:28;;;;;;;5.13;2.20;;;12.00;43.10;;;;;;4959745;28;20461;-63
2022/10/25 03:15:55;;;;;;;6.53;2.20;;;12.00;43.20;;;;;;4963583;28;20480;-64
2022/10/25 03:18:22;;;;;;;8.00;2.60;;;12.00;43.10;;;;;;4967431;28;20499;-64
2022/10/25 03:20:49;;;;;;;6.87;2.50;;;12.00;43.00;;;;;;4962876;28;20740;-64
2022/10/25 03:23:16;;;;;;;5.50;2.40;;;11.90;43.00;;;;;;4962768;28;20822;-63
2022/10/25 03:25:43;;;;;;;6.20;2.53;;;12.00;43.00;;;;;;4966707;28;20950;-65
2022/10/25 03:28:11;;;;;;;4.90;2.37;;;12.00;43.10;;;;;;4960842;28;20552;-65
2022/10/25 03:30:38;;;;;;;4.80;2.03;;;12.00;42.90;;;;;;4958640;28;20835;-64
2022/10/25 03:33:05;;;;;;;5.43;2.53;;;12.00;43.10;;;;;;4967240;28;20479;-64
2022/10/25 03:35:32;;;;;;;6.10;2.93;;;12.00;43.10;;;;;;4963123;28;20548;-64
2022/10/25 03:37:58;;;;;;;5.10;2.30;;;12.00;43.00;;;;;;4963503;28;20549;-64
2022/10/25 03:40:25;;;;;;;7.27;2.30;;;11.90;43.10;;;;;;4967537;28;20521;-65
2022/10/25 03:42:52;;;;;;;6.27;2.40;;;11.90;43.30;;;;;;4958603;28;20469;-64
2022/10/25 03:45:20;;;;;;;6.10;2.20;;;11.90;43.50;;;;;;4963281;28;20575;-65
2022/10/25 03:47:47;;;;;;;8.63;2.33;;;11.90;43.90;;;;;;4957979;28;20493;-65
2022/10/25 03:50:14;;;;;;;4.70;2.23;;;12.00;44.00;;;;;;4964086;28;20498;-64
2022/10/25 03:52:41;;;;;;;5.10;2.20;;;12.00;44.10;;;;;;4957995;28;20472;-64
2022/10/25 03:55:08;;;;;;;5.50;2.20;;;12.00;44.00;;;;;;4965569;28;20901;-64
2022/10/25 03:57:35;;;;;;;6.60;2.43;;;12.00;43.90;;;;;;4960496;28;20708;-64
2022/10/25 04:00:02;;;;;;;7.97;2.20;;;11.90;44.00;;;;;;4968133;28;20466;-64
2022/10/25 04:02:30;;;;;;;6.90;2.73;;;12.00;44.00;;;;;;4955792;28;20492;-64
2022/10/25 04:04:57;;;;;;;5.50;2.27;;;11.90;43.80;;;;;;4961166;28;20495;-64
2022/10/25 04:07:24;;;;;;;5.77;2.40;;;11.90;43.80;;;;;;4963478;28;21026;-63
2022/10/25 04:09:51;;;;;;;6.53;2.40;;;11.90;44.00;;;;;;4955019;28;20970;-65
2022/10/25 04:12:18;;;;;;;8.60;2.63;;;11.90;44.10;;;;;;4964839;28;20466;-64
2022/10/25 04:14:44;;;;;;;6.00;2.40;;;11.90;44.40;;;;;;4957238;28;20462;-65
2022/10/25 04:17:11;;;;;;;6.10;2.50;;;11.90;44.40;;;;;;4969058;28;20489;-64
2022/10/25 04:19:39;;;;;;;5.10;2.53;;;11.90;44.30;;;;;;4957220;28;20461;-65
2022/10/25 04:22:06;;;;;;;8.43;2.80;;;11.90;44.60;;;;;;4959517;28;20467;-64
2022/10/25 04:24:33;;;;;;;6.53;2.70;;;11.90;44.60;;;;;;4960436;28;20474;-66
2022/10/25 04:27:00;;;;;;;8.90;2.80;;;11.90;44.40;;;;;;4969547;28;20561;-65
2022/10/25 04:29:26;;;;;;;8.70;2.87;;;11.90;44.30;;;;;;4958342;28;20548;-68
2022/10/25 04:31:53;;;;;;;6.53;2.67;;;11.90;44.30;;;;;;4969917;28;20496;-65
2022/10/25 04:34:20;;;;;;;6.60;2.43;;;11.80;44.30;;;;;;4966155;28;20461;-65
2022/10/25 04:36:48;;;;;;;8.00;3.50;;;11.80;44.30;;;;;;4960498;28;20489;-65
2022/10/25 04:39:15;;;;;;;7.80;3.77;;;11.80;44.40;;;;;;4972245;28;20461;-64
2022/10/25 04:41:41;;;;;;;6.10;3.00;;;11.80;44.40;;;;;;4959980;28;20861;-65
2022/10/25 04:44:08;;;;;;;5.37;2.70;;;11.80;44.40;;;;;;4964363;28;20465;-65
2022/10/25 04:46:35;;;;;;;6.90;3.17;;;11.80;44.40;;;;;;4970625;28;20488;-65
2022/10/25 04:49:02;;;;;;;7.87;3.40;;;11.80;44.30;;;;;;4972938;28;20477;-64
2022/10/25 04:51:28;;;;;;;7.77;3.20;;;11.70;44.20;;;;;;4966602;28;20457;-65
2022/10/25 04:53:57;;;;;;;6.07;2.60;;;11.70;44.00;;;;;;4955660;28;20718;-65
2022/10/25 04:56:24;;;;;;;6.83;3.27;;;11.70;44.00;;;;;;4962084;28;20486;-65
2022/10/25 04:58:51;;;;;;;7.50;4.87;;;11.70;44.00;;;;;;4965284;28;20466;-66
2022/10/25 05:01:18;;;;;;;7.53;4.10;;;11.60;43.90;;;;;;4963024;28;20565;-66
2022/10/25 05:03:45;;;;;;;7.93;5.00;;;11.50;43.90;;;;;;4970565;28;20465;-66
2022/10/25 05:06:14;;;;;;;11.57;5.83;;;11.50;44.10;;;;;;4964001;28;20489;-66
2022/10/25 05:08:43;;;;;;;15.50;7.33;;;11.50;44.10;;;;;;4968316;28;20461;-66
2022/10/25 05:11:13;;;;;;;9.97;6.40;;;11.50;44.30;;;;;;4957237;28;21255;-66
2022/10/25 05:13:41;;;;;;;9.40;5.13;;;11.50;44.70;;;;;;4963510;28;20458;-66
2022/10/25 05:16:12;;;;;;;9.70;6.23;;;11.60;45.00;;;;;;4959329;28;20489;-66
2022/10/25 05:18:38;;;;;;;8.50;4.57;;;11.60;45.70;;;;;;4971117;28;20466;-66
2022/10/25 05:21:06;;;;;;;6.70;3.60;;;11.60;45.20;;;;;;4967839;28;20466;-66
2022/10/25 05:23:34;;;;;;;12.23;5.30;;;11.60;45.10;;;;;;4970241;28;20469;-66
2022/10/25 05:26:03;;;;;;;7.03;4.70;;;11.60;45.10;;;;;;4966444;28;20482;-66
2022/10/25 05:28:31;;;;;;;8.50;4.60;;;11.60;45.00;;;;;;4968804;28;20470;-66
2022/10/25 05:30:58;;;;;;;8.43;5.20;;;11.60;45.00;;;;;;4964989;28;20470;-66
2022/10/25 05:33:24;;;;;;;9.40;5.20;;;11.50;44.90;;;;;;4968104;28;20462;-66
2022/10/25 05:35:51;;;;;;;8.80;5.50;;;11.50;44.90;;;;;;4968777;28;20500;-66
2022/10/25 05:38:18;;;;;;;9.70;5.03;;;11.50;44.90;;;;;;4969206;28;20465;-66
2022/10/25 05:40:52;;;;;;;9.07;5.47;;;11.50;44.80;;;;;;4966786;28;20462;-66
2022/10/25 05:43:19;;;;;;;8.30;4.83;;;11.40;44.80;;;;;;4967208;28;21040;-65
2022/10/25 05:45:47;;;;;;;13.20;5.33;;;11.40;44.60;;;;;;4962419;28;20484;-66
2022/10/25 05:48:14;;;;;;;8.07;4.73;;;11.40;44.60;;;;;;4961941;28;20470;-66
2022/10/25 05:50:41;;;;;;;11.43;4.80;;;11.40;44.50;;;;;;4964103;28;20452;-66
2022/10/25 05:53:07;;;;;;;10.00;4.67;;;11.40;44.50;;;;;;4970542;28;20468;-66
2022/10/25 05:55:35;;;;;;;8.40;4.57;;;11.30;44.60;;;;;;4965380;28;20488;-66
2022/10/25 05:58:02;;;;;;;9.53;4.40;;;11.40;44.40;;;;;;4969476;28;20485;-66
2022/10/25 06:00:28;;;;;;;9.40;5.10;;;11.40;44.60;;;;;;4965850;28;20538;-66
2022/10/25 06:03:00;;;;;;;19.43;5.40;;;11.40;44.40;;;;;;4967311;28;20465;-66
2022/10/25 06:05:27;;;;;;;9.20;5.40;;;11.40;44.80;;;;;;4967677;28;20481;-66
2022/10/25 06:07:53;;;;;;;9.50;5.37;;;11.40;44.50;;;;;;4966323;28;20485;-66
2022/10/25 06:10:20;;;;;;;8.47;5.00;;;11.40;44.60;;;;;;4964188;28;21016;-66
2022/10/25 06:12:47;;;;;;;8.13;5.33;;;11.50;44.70;;;;;;4968251;28;20477;-66
2022/10/25 06:15:14;;;;;;;12.70;6.10;;;11.50;44.60;;;;;;4967257;28;20490;-66
2022/10/25 06:17:40;;;;;;;12.33;7.00;;;11.60;44.30;;;;;;4967943;28;20481;-66
2022/10/25 06:20:09;;;;;;;11.03;5.90;;;11.60;44.20;;;;;;4965292;28;20462;-67
2022/10/25 06:22:36;;;;;;;10.43;5.73;;;11.70;44.20;;;;;;4968532;28;20461;-66
2022/10/25 06:25:03;;;;;;;13.10;6.40;;;11.70;43.90;;;;;;4966386;28;20469;-66
2022/10/25 06:27:30;;;;;;;9.80;6.33;;;11.80;43.70;;;;;;4968816;28;20469;-66
2022/10/25 06:29:57;;;;;;;12.00;6.50;;;11.90;43.70;;;;;;4966357;28;21044;-66
2022/10/25 06:32:23;;;;;;;11.47;6.67;;;12.10;43.70;;;;;;4969213;28;20477;-66
2022/10/25 06:34:50;;;;;;;14.53;6.87;;;12.20;43.30;;;;;;4965592;28;20493;-66
2022/10/25 06:37:18;;;;;;;11.20;6.53;;;12.50;43.20;;;;;;4969093;28;20493;-66
2022/10/25 06:39:45;;;;;;;9.80;6.80;;;12.90;42.70;;;;;;4965514;28;20462;-66
2022/10/25 06:42:12;;;;;;;11.60;6.33;;;13.40;41.30;;;;;;4966818;28;20472;-66
2022/10/25 06:44:38;;;;;;;10.90;7.60;;;14.10;39.70;;;;;;4961764;28;20466;-66
2022/10/25 06:47:05;;;;;;;12.13;6.77;;;14.80;37.60;;;;;;4965472;28;20994;-67
2022/10/25 06:49:32;;;;;;;11.63;8.23;;;15.00;35.90;;;;;;4968072;28;20458;-66
2022/10/25 06:51:59;;;;;;;12.90;8.90;;;15.30;34.30;;;;;;4969848;28;20468;-66
2022/10/25 06:54:27;;;;;;;11.23;7.67;;;15.80;33.70;;;;;;4973081;28;20458;-66
2022/10/25 06:56:53;;;;;;;12.97;8.10;;;16.30;32.40;;;;;;4969365;28;20474;-66
2022/10/25 06:59:20;;;;;;;9.80;6.77;;;16.80;30.90;;;;;;4968818;28;20469;-66
2022/10/25 07:01:47;;;;;;;12.33;8.30;;;17.20;29.40;;;;;;4966205;28;20492;-66
2022/10/25 07:04:14;;;;;;;10.23;7.67;;;16.90;29.30;;;;;;4973037;28;20591;-66
2022/10/25 07:06:41;;;;;;;11.30;7.87;;;16.60;29.80;;;;;;4967706;28;20481;-66
2022/10/25 07:09:11;;;;;;;11.40;7.40;;;16.50;30.20;;;;;;4971900;28;20457;-67
2022/10/25 07:11:39;;;;;;;11.60;7.90;;;16.40;30.10;;;;;;4966501;28;20469;-66
2022/10/25 07:14:06;;;;;;;10.20;7.33;;;16.20;30.40;;;;;;4972724;28;20461;-66
2022/10/25 07:16:33;;;;;;;14.50;7.67;;;16.20;30.70;;;;;;4967328;28;20493;-66
2022/10/25 07:19:00;;;;;;;12.00;8.07;;;16.20;31.20;;;;;;4972187;28;20462;-66
2022/10/25 07:21:28;;;;;;;11.47;8.20;;;16.30;31.10;;;;;;4968622;28;20903;-66
2022/10/25 07:23:55;;;;;;;13.37;7.20;;;16.40;30.20;;;;;;4971080;28;20454;-66
2022/10/25 07:26:24;;;;;;;12.27;6.13;;;16.60;31.30;;;;;;4970403;28;20488;-67
2022/10/25 07:28:54;;;;;;;10.47;7.00;;;16.90;30.10;;;;;;4967254;28;20462;-67
2022/10/25 07:31:23;;;;;;;12.03;6.90;;;17.20;29.80;;;;;;4964348;28;20492;-66
2022/10/25 07:33:52;;;;;;;9.30;6.50;;;17.30;28.60;;;;;;4968942;28;20458;-66
2022/10/25 07:36:18;;;;;;;9.20;6.43;;;17.30;27.50;;;;;;4960587;28;20485;-66
2022/10/25 07:38:46;;;;;;;12.77;7.60;;;17.10;27.40;;;;;;4957763;28;20487;-66
2022/10/25 07:41:12;;;;;;;9.90;7.20;;;17.00;27.50;;;;;;4965396;28;20466;-66
2022/10/25 07:43:39;;;;;;;10.13;6.43;;;17.50;27.90;;;;;;4966723;28;20470;-65
2022/10/25 07:46:08;;;;;;;11.13;7.17;;;18.00;26.90;;;;;;4959492;28;20669;-65
2022/10/25 07:48:35;;;;;;;10.00;7.33;;;18.30;25.50;;;;;;4967563;28;20461;-65
2022/10/25 07:51:06;;;;;;;19.50;7.20;;;18.50;24.30;;;;;;4963113;28;20476;-65
2022/10/25 07:53:34;;;;;;;9.60;6.63;;;18.70;24.20;;;;;;4970130;28;20465;-67
2022/10/25 07:56:01;;;;;;;11.10;6.70;;;19.00;23.40;;;;;;4962986;28;20905;-67
2022/10/25 07:58:28;;;;;;;9.40;7.17;;;19.10;22.70;;;;;;4964898;28;20497;-67
2022/10/25 08:01:00;;;;;;;11.33;7.07;;;19.30;22.50;;;;;;4961701;28;20487;-65
2022/10/25 08:03:28;;;;;;;10.60;6.13;;;20.00;21.50;;;;;;4963420;28;20527;-65
2022/10/25 08:05:55;;;;;;;8.60;6.03;;;21.00;19.40;;;;;;4961682;28;20490;-67
2022/10/25 08:08:23;;;;;;;11.60;6.10;;;21.90;17.40;;;;;;4965270;28;20462;-65
2022/10/25 08:10:50;;;;;;;9.13;5.83;;;22.80;15.40;;;;;;4967642;28;20465;-66
2022/10/25 08:13:17;;;;;;;7.47;4.80;;;23.50;13.10;;;;;;4965892;28;20493;-66
2022/10/25 08:15:49;;;;;;;7.83;5.10;;;23.90;12.40;;;;;;4967494;28;20529;-66
2022/10/25 08:18:16;;;;;;;7.00;4.57;;;25.00;11.10;;;;;;4957921;28;20489;-66
2022/10/25 08:20:44;;;;;;;7.43;5.20;;;25.60;9.00;;;;;;4968146;28;20484;-66
2022/10/25 08:23:11;;;;;;;7.97;4.80;;;25.90;7.80;;;;;;4964947;28;20462;-66
2022/10/25 08:25:38;;;;;;;8.13;5.47;;;26.60;7.30;;;;;;4963996;28;20485;-66
2022/10/25 08:28:05;;;;;;;7.87;4.97;;;27.80;5.50;;;;;;4963776;28;20474;-66
2022/10/25 08:30:32;;;;;;;6.97;4.40;;;29.00;4.30;;;;;;4963068;28;20474;-67
2022/10/25 08:32:58;;;;;;;7.07;4.23;;;29.90;2.10;;;;;;4963310;28;20476;-67
2022/10/25 08:35:25;;;;;;;8.90;4.60;;;30.40;1.20;;;;;;4967692;28;20993;-67
2022/10/25 08:37:53;;;;;;;20.77;5.00;;;31.00;1.00;;;;;;4957930;28;20482;-67
2022/10/25 08:40:24;;;;;;;7.87;4.87;;;31.60;1.00;;;;;;4965147;28;20486;-67
2022/10/25 08:43:01;;;;;;;6.20;4.10;;;32.30;1.00;;;;;;4963789;28;20935;-67
2022/10/25 08:45:36;;;;;;;6.53;3.50;;;32.80;1.00;;;;;;4965584;28;20617;-67
2022/10/25 08:48:10;;;;;;;9.30;3.60;;;33.60;1.00;;;;;;4961803;28;20461;-68
2022/10/25 08:50:42;;;;;;;5.33;3.53;;;34.30;1.00;;;;;;4960303;28;20526;-67
2022/10/25 08:53:17;;;;;;;6.20;3.90;;;35.00;1.00;;;;;;4966298;28;20458;-67
2022/10/25 08:55:46;;;;;;;4.37;2.90;;;35.60;1.00;;;;;;4956311;28;20488;-67
2022/10/25 08:58:17;;;;;;;7.07;3.60;;;36.30;1.00;;;;;;4962523;28;20474;-67
2022/10/25 09:00:47;;;;;;;6.73;3.23;;;36.70;1.00;;;;;;4956960;28;20469;-67
2022/10/25 09:03:16;;;;;;;7.00;3.40;;;37.10;1.00;;;;;;4962498;28;20454;-67
2022/10/25 09:05:54;;;;;;;6.47;3.50;;;37.60;1.00;;;;;;4968117;28;20477;-67
2022/10/25 09:08:34;;;;;;;5.20;2.97;;;37.70;1.00;;;;;;4954338;28;20816;-67
2022/10/25 09:11:09;;;;;;;6.80;3.13;;;38.00;1.00;;;;;;4961831;28;20466;-68
2022/10/25 09:13:43;;;;;;;8.50;2.83;;;38.50;1.00;;;;;;4962964;28;20469;-67
2022/10/25 09:16:15;;;;;;;7.30;3.50;;;38.70;1.00;;;;;;4961100;28;20507;-68
2022/10/25 09:18:48;;;;;;;13.73;3.83;;;38.80;1.00;;;;;;4957622;28;20508;-68
2022/10/25 09:21:19;;;;;;;8.50;3.80;;;38.90;1.00;;;;;;4960010;28;20469;-67
2022/10/25 09:23:59;;;;;;;5.23;2.80;;;39.00;1.00;;;;;;4964006;28;20461;-68
2022/10/25 09:26:41;;;;;;;6.73;2.60;;;38.90;1.00;;;;;;4956737;28;21018;-69
2022/10/25 09:29:15;;;;;;;5.10;2.53;;;38.50;1.00;;;;;;4963719;28;21041;-68
2022/10/25 09:31:47;;;;;;;10.30;3.17;;;38.30;1.00;;;;;;4965928;28;20493;-67
2022/10/25 09:34:16;;;;;;;6.10;3.20;;;37.80;1.00;;;;;;4957333;28;20472;-68
2022/10/25 09:36:46;;;;;;;5.00;2.70;;;37.30;1.00;;;;;;4960129;28;20501;-69
2022/10/25 09:39:20;;;;;;;7.87;3.10;;;36.80;1.00;;;;;;4960584;28;20482;-67
2022/10/25 09:41:51;;;;;;;5.90;2.60;;;36.30;1.00;;;;;;4961958;28;20462;-68
2022/10/25 09:44:32;;;;;;;4.70;2.23;;;35.70;1.00;;;;;;4964432;28;20462;-68
2022/10/25 09:47:08;;;;;;;4.63;2.47;;;35.10;1.00;;;;;;4964490;28;20481;-68
2022/10/25 09:49:40;;;;;;;5.17;2.70;;;34.40;1.00;;;;;;4961861;28;20461;-68
2022/10/25 09:52:15;;;;;;;8.87;2.53;;;33.70;1.00;;;;;;4961986;28;20482;-68
2022/10/25 09:54:49;;;;;;;7.90;3.00;;;33.00;1.00;;;;;;4958111;28;20471;-68
2022/10/25 09:57:16;;;;;;;6.80;2.60;;;32.30;1.00;;;;;;4959428;28;20549;-68
2022/10/25 09:59:44;;;;;;;5.80;2.27;;;31.60;1.00;;;;;;4959931;28;20481;-68
2022/10/25 10:02:15;;;;;;;6.07;2.40;;;31.00;1.00;;;;;;4963755;28;20490;-67
2022/10/25 10:04:42;;;;;;;6.03;2.67;;;30.30;1.00;;;;;;4965945;28;20476;-67
2022/10/25 10:07:16;;;;;;;5.20;2.30;;;29.60;1.10;;;;;;4965152;28;20481;-67
2022/10/25 10:09:45;;;;;;;7.87;3.03;;;29.00;2.00;;;;;;4965751;28;20521;-67
2022/10/25 10:12:20;;;;;;;6.80;3.07;;;28.40;2.20;;;;;;4962226;28;20553;-67
2022/10/25 10:14:55;;;;;;;7.30;3.20;;;27.80;2.80;;;;;;4954543;28;20464;-67
2022/10/25 10:17:23;;;;;;;6.27;3.00;;;27.40;4.30;;;;;;4962200;28;20693;-67
2022/10/25 10:20:09;;;;;;;5.03;2.40;;;27.10;5.20;;;;;;4958782;28;20521;-67
2022/10/25 10:22:38;;;;;;;5.47;2.67;;;26.70;5.30;;;;;;4963273;28;20893;-67
2022/10/25 10:25:14;;;;;;;6.20;2.90;;;26.50;6.00;;;;;;4961721;28;20480;-67
2022/10/25 10:27:41;;;;;;;7.67;3.70;;;26.30;6.80;;;;;;4969495;28;20492;-67
2022/10/25 10:30:18;;;;;;;6.97;3.13;;;26.20;6.70;;;;;;4968957;28;20465;-67
2022/10/25 10:32:45;;;;;;;7.43;3.03;;;26.10;7.10;;;;;;4963676;28;21166;-67
2022/10/25 10:35:27;;;;;;;6.47;2.60;;;26.10;7.50;;;;;;4968832;28;20596;-66
2022/10/25 10:38:24;;;;;;;4.70;2.33;;;26.10;7.90;;;;;;4965184;28;20484;-67
2022/10/25 10:40:54;;;;;;;9.07;3.10;;;26.20;7.20;;;;;;4959279;28;20475;-67
2022/10/25 10:43:29;;;;;;;6.63;2.40;;;26.30;6.80;;;;;;4963486;28;20466;-67
2022/10/25 10:46:02;;;;;;;7.20;2.33;;;26.40;7.00;;;;;;4955734;28;20858;-67
2022/10/25 10:48:34;;;;;;;7.10;2.63;;;26.60;6.60;;;;;;4969371;28;20457;-67
2022/10/25 10:51:02;;;;;;;5.73;2.20;;;26.80;6.40;;;;;;4962314;28;20469;-66
2022/10/25 10:53:31;;;;;;;5.67;2.37;;;27.20;6.80;;;;;;4966416;28;20489;-66
2022/10/25 10:56:01;;;;;;;14.30;2.50;;;27.50;6.40;;;;;;4968619;28;20488;-66
2022/10/25 10:58:30;;;;;;;6.03;2.57;;;27.90;5.80;;;;;;4967912;28;20492;-67
2022/10/25 11:00:59;;;;;;;8.27;3.07;;;28.40;4.80;;;;;;4965513;28;20481;-66
2022/10/25 11:03:47;;;;;;;5.43;2.70;;;28.80;4.50;;;;;;4963865;28;20528;-67
2022/10/25 11:06:18;;;;;;;4.33;2.00;;;29.10;3.80;;;;;;4964504;28;21295;-66
2022/10/25 11:08:47;;;;;;;4.63;2.17;;;29.50;2.40;;;;;;4970380;28;21124;-66
2022/10/25 11:11:18;;;;;;;6.63;2.47;;;29.80;2.10;;;;;;4965594;28;20462;-66
2022/10/25 11:13:52;;;;;;;6.80;2.27;;;30.20;1.70;;;;;;4968048;28;20564;-68
2022/10/25 11:16:51;;;;;;;5.43;1.93;;;30.60;1.40;;;;;;4965704;28;20850;-66
2022/10/25 11:19:30;;;;;;;4.30;1.60;;;30.90;1.10;;;;;;4966249;28;20491;-69
2022/10/25 11:22:11;;;;;;;7.30;2.10;;;31.30;1.00;;;;;;4963003;28;20481;-69
2022/10/25 11:24:48;;;;;;;7.97;1.97;;;31.60;1.00;;;;;;4967075;28;20468;-67
2022/10/25 11:27:25;;;;;;;6.43;2.00;;;31.80;1.00;;;;;;4963704;28;20552;-67
2022/10/25 11:30:16;;;;;;;7.00;2.23;;;32.00;1.00;;;;;;4964901;28;20461;-67
2022/10/25 11:33:08;;;;;;;5.60;2.30;;;32.20;1.00;;;;;;4963947;28;20544;-69
2022/10/25 11:36:01;;;;;;;6.23;2.40;;;32.30;1.00;;;;;;4962046;28;20541;-69
2022/10/25 11:38:41;;;;;;;6.07;2.13;;;32.40;1.00;;;;;;4963110;28;20486;-68
2022/10/25 11:41:24;;;;;;;5.50;1.70;;;32.70;1.00;;;;;;4964793;28;20486;-69
2022/10/25 11:44:10;;;;;;;4.10;1.57;;;32.90;1.00;;;;;;4957339;28;20473;-68
2022/10/25 11:46:45;;;;;;;4.57;1.40;;;32.90;1.00;;;;;;4966876;28;20473;-68
2022/10/25 11:49:28;;;;;;;4.67;2.10;;;32.90;1.00;;;;;;4960072;28;20561;-68
2022/10/25 11:52:14;;;;;;;7.53;2.20;;;32.90;1.00;;;;;;4961989;28;20474;-68
2022/10/25 11:54:44;;;;;;;6.63;1.90;;;32.80;1.00;;;;;;4967126;28;20457;-67
2022/10/25 11:57:22;;;;;;;5.40;1.30;;;32.80;1.00;;;;;;4962941;28;20548;-67
2022/10/25 12:00:00;;;;;;;5.23;1.40;;;32.80;1.00;;;;;;4963170;28;20573;-67
2022/10/25 12:02:42;;;;;;;5.87;1.30;;;32.60;1.00;;;;;;4959604;28;20509;-66
2022/10/25 12:05:25;;;;;;;4.43;1.50;;;32.50;1.00;;;;;;4967851;28;20782;-67
2022/10/25 12:08:03;;;;;;;4.30;2.00;;;32.20;1.00;;;;;;4966793;28;20884;-66
2022/10/25 12:10:35;;;;;;;7.10;1.50;;;32.10;1.00;;;;;;4966073;28;20797;-66
2022/10/25 12:13:06;;;;;;;3.90;0.83;;;32.00;1.00;;;;;;4970075;28;20465;-66
2022/10/25 12:15:38;;;;;;;4.63;1.33;;;31.80;1.00;;;;;;4960353;28;20488;-66
2022/10/25 12:18:06;;;;;;;6.03;1.83;;;31.60;1.00;;;;;;4961670;28;20461;-67
2022/10/25 12:20:36;;;;;;;5.20;1.50;;;31.50;1.00;;;;;;4965092;28;20506;-66
2022/10/25 12:23:09;;;;;;;5.20;1.30;;;31.20;1.00;;;;;;4961388;28;20472;-66
2022/10/25 12:25:40;;;;;;;5.97;1.70;;;31.00;1.00;;;;;;4964902;28;20725;-67
2022/10/25 12:28:14;;;;;;;5.63;1.40;;;30.70;1.00;;;;;;4963232;28;20473;-66
2022/10/25 12:30:44;;;;;;;6.37;1.63;;;30.50;1.00;;;;;;4959226;28;20462;-66
2022/10/25 12:33:16;;;;;;;4.90;1.13;;;30.40;1.00;;;;;;4958288;28;20817;-67
2022/10/25 12:35:49;;;;;;;4.97;0.90;;;30.20;1.00;;;;;;4962571;28;20876;-67
2022/10/25 12:38:21;;;;;;;4.57;1.30;;;29.80;1.00;;;;;;4965545;28;20860;-66
2022/10/25 12:40:51;;;;;;;3.80;1.07;;;29.50;1.00;;;;;;4963883;28;20468;-67
2022/10/25 12:43:25;;;;;;;5.53;1.07;;;29.20;1.00;;;;;;4965152;28;20465;-66
2022/10/25 12:46:24;;;;;;;4.00;1.10;;;28.90;1.00;;;;;;4955895;28;20534;-67
2022/10/25 12:49:12;;;;;;;5.43;1.20;;;28.40;1.00;;;;;;4957623;28;20975;-67
2022/10/25 12:51:54;;;;;;;3.47;0.80;;;27.70;1.10;;;;;;4964931;28;20914;-66
2022/10/25 12:54:49;;;;;;;3.73;0.90;;;27.00;1.70;;;;;;4962259;28;20465;-66
2022/10/25 12:57:25;;;;;;;4.90;1.00;;;26.30;2.10;;;;;;4964810;28;20472;-66
2022/10/25 13:00:04;;;;;;;4.40;0.97;;;25.80;3.20;;;;;;4960941;28;20978;-66
2022/10/25 13:03:20;;;;;;;4.70;1.23;;;25.30;4.00;;;;;;4965266;28;20482;-66
2022/10/25 13:06:07;;;;;;;3.90;1.00;;;24.90;5.00;;;;;;4943487;28;20489;-66
2022/10/25 13:08:34;;;;;;;4.83;1.20;;;24.50;5.70;;;;;;4966361;28;20759;-65